Time;durP1;ratioP1;P1;durP2;ratioP2;P2;SDS_P1;SDS_P2;PMS_P1;PMS_P2;Temp;Humidity;BMP_temperature;BMP_pressure;BME280_temperature;BME280_humidity;BME280_pressure;Samples;Min_cycle;Max_cycle;Signal;HPM_P1;HPM_P2
2023/12/09 00:02:06;;;;;;;3.13;1.40;;;10.20;99.90;;;;;;5042655;28;20599;-72
2023/12/09 00:04:31;;;;;;;3.70;2.00;;;10.20;99.90;;;;;;4971433;28;20183;-73
2023/12/09 00:06:57;;;;;;;5.13;2.07;;;10.20;99.90;;;;;;5043110;28;20183;-73
2023/12/09 00:09:23;;;;;;;4.40;2.13;;;10.20;99.90;;;;;;5055354;28;20191;-73
2023/12/09 00:11:49;;;;;;;4.67;2.10;;;10.20;99.90;;;;;;5054591;28;20227;-74
2023/12/09 00:14:14;;;;;;;6.23;1.90;;;10.20;99.90;;;;;;4988645;28;20216;-73
2023/12/09 00:16:40;;;;;;;6.67;2.17;;;10.20;99.90;;;;;;5073237;28;20176;-73
2023/12/09 00:19:07;;;;;;;3.95;2.28;;;10.20;99.90;;;;;;5019094;28;20179;-73
2023/12/09 00:21:32;;;;;;;4.13;1.90;;;10.30;99.90;;;;;;4971432;28;20168;-73
2023/12/09 00:23:59;;;;;;;4.00;1.10;;;10.30;99.90;;;;;;5037470;28;20210;-73
2023/12/09 00:26:27;;;;;;;3.70;1.70;;;10.30;99.90;;;;;;5038181;28;20225;-73
2023/12/09 00:28:53;;;;;;;3.65;1.98;;;10.30;99.90;;;;;;4953630;28;20287;-74
2023/12/09 00:31:18;;;;;;;4.20;1.30;;;10.40;99.90;;;;;;4971167;28;20641;-73
2023/12/09 00:33:44;;;;;;;4.60;1.67;;;10.40;99.90;;;;;;5037765;28;20710;-74
2023/12/09 00:36:10;;;;;;;5.73;1.43;;;10.40;99.90;;;;;;5037081;28;20283;-73
2023/12/09 00:38:35;;;;;;;3.97;1.47;;;10.40;99.90;;;;;;5037865;28;20229;-73
2023/12/09 00:41:01;;;;;;;5.27;1.00;;;10.50;99.90;;;;;;5037736;28;20682;-74
2023/12/09 00:43:27;;;;;;;4.17;1.00;;;10.50;99.90;;;;;;5037634;28;20204;-73
2023/12/09 00:45:53;;;;;;;3.60;0.90;;;10.50;99.90;;;;;;5037828;28;20182;-74
2023/12/09 00:48:19;;;;;;;3.07;1.03;;;10.50;99.90;;;;;;5037617;28;20615;-73
2023/12/09 00:50:44;;;;;;;2.87;1.40;;;10.50;99.90;;;;;;5037634;28;20652;-73
2023/12/09 00:53:12;;;;;;;4.00;1.30;;;10.50;99.90;;;;;;5036799;28;20209;-74
2023/12/09 00:55:37;;;;;;;3.00;1.40;;;10.50;99.90;;;;;;4979590;28;20241;-74
2023/12/09 00:58:03;;;;;;;4.13;1.10;;;10.50;99.90;;;;;;5053538;28;20207;-73
2023/12/09 01:00:29;;;;;;;5.70;1.50;;;10.50;99.90;;;;;;5054205;28;20168;-73
2023/12/09 01:02:54;;;;;;;4.23;1.17;;;10.50;99.90;;;;;;4985242;28;20711;-73
2023/12/09 01:05:20;;;;;;;3.47;1.00;;;10.50;99.90;;;;;;5037240;28;20268;-73
2023/12/09 01:07:46;;;;;;;3.20;1.20;;;10.50;99.90;;;;;;5037361;28;20652;-73
2023/12/09 01:10:12;;;;;;;4.97;1.47;;;10.50;99.90;;;;;;5037246;28;20572;-72
2023/12/09 01:12:37;;;;;;;3.23;1.37;;;10.50;99.90;;;;;;5037398;28;20241;-77
2023/12/09 01:15:03;;;;;;;3.30;1.20;;;10.40;99.90;;;;;;5037404;28;20591;-77
2023/12/09 01:17:29;;;;;;;3.15;1.00;;;10.40;99.90;;;;;;5053470;28;20287;-77
2023/12/09 01:19:55;;;;;;;3.70;1.37;;;10.30;99.90;;;;;;5035680;28;20763;-77
2023/12/09 01:22:21;;;;;;;5.50;1.20;;;10.30;99.90;;;;;;5037049;28;20567;-77
2023/12/09 01:24:46;;;;;;;4.00;1.30;;;10.20;99.90;;;;;;5037487;28;20179;-77
2023/12/09 01:27:12;;;;;;;3.87;1.10;;;10.20;99.90;;;;;;4970585;28;20603;-76
2023/12/09 01:29:37;;;;;;;3.50;1.47;;;10.20;99.90;;;;;;5003905;28;20539;-77
2023/12/09 01:32:03;;;;;;;6.10;1.17;;;10.20;99.90;;;;;;4969874;28;20194;-76
2023/12/09 01:34:29;;;;;;;3.63;1.40;;;10.20;99.90;;;;;;5039078;28;20187;-77
2023/12/09 01:36:55;;;;;;;2.17;1.00;;;10.20;99.90;;;;;;5071436;28;20630;-76
2023/12/09 01:39:20;;;;;;;2.93;1.63;;;10.20;99.90;;;;;;5053661;28;20168;-77
2023/12/09 01:41:46;;;;;;;4.33;1.40;;;10.20;99.90;;;;;;5053142;28;20715;-77
2023/12/09 01:44:12;;;;;;;7.33;1.73;;;10.20;99.90;;;;;;4988511;28;20681;-77
2023/12/09 01:46:38;;;;;;;5.70;2.13;;;10.20;99.90;;;;;;4985735;28;20173;-76
2023/12/09 01:49:05;;;;;;;4.85;1.40;;;10.20;99.90;;;;;;4989417;28;20167;-77
2023/12/09 01:51:33;;;;;;;4.10;1.00;;;10.20;99.90;;;;;;4956163;28;20172;-76
2023/12/09 01:53:59;;;;;;;4.60;1.45;;;10.20;99.90;;;;;;5030644;28;20207;-77
2023/12/09 01:56:25;;;;;;;7.80;2.17;;;10.20;99.90;;;;;;5000069;28;20167;-76
2023/12/09 01:58:51;;;;;;;4.67;1.57;;;10.20;99.90;;;;;;4971680;28;21007;-77
2023/12/09 02:01:17;;;;;;;4.80;1.10;;;10.20;99.90;;;;;;4971604;28;20590;-77
2023/12/09 02:03:43;;;;;;;7.85;1.70;;;10.20;99.90;;;;;;4982915;28;20199;-76
2023/12/09 02:06:09;;;;;;;5.20;1.47;;;10.20;99.90;;;;;;5014065;28;20262;-77
2023/12/09 02:08:35;;;;;;;4.03;1.17;;;10.20;99.90;;;;;;5010273;28;20596;-77
2023/12/09 02:11:52;;;;;;;3.42;1.33;;;10.20;99.90;;;;;;5071174;28;20593;-78
2023/12/09 02:14:23;;;;;;;5.28;1.30;;;10.20;99.90;;;;;;4985009;28;20306;-77
2023/12/09 02:17:21;;;;;;;3.55;1.40;;;10.20;99.90;;;;;;5035687;28;20176;-78
2023/12/09 02:19:47;;;;;;;2.80;1.25;;;10.10;99.90;;;;;;4985050;28;20171;-77
2023/12/09 02:22:13;;;;;;;3.75;1.58;;;10.10;99.90;;;;;;5070199;28;20219;-77
2023/12/09 02:24:39;;;;;;;8.20;1.43;;;10.00;99.90;;;;;;4985056;28;20177;-77
2023/12/09 02:27:10;;;;;;;3.60;1.57;;;10.00;99.90;;;;;;5002563;28;20177;-76
2023/12/09 02:29:53;;;;;;;5.47;1.17;;;9.90;99.90;;;;;;4975613;28;20266;-76
2023/12/09 02:32:23;;;;;;;3.35;1.65;;;9.90;99.90;;;;;;4970920;28;20199;-78
2023/12/09 02:34:51;;;;;;;6.18;1.02;;;9.80;99.90;;;;;;4971266;28;20179;-77
2023/12/09 02:37:19;;;;;;;7.28;1.80;;;9.80;99.90;;;;;;5033053;28;20734;-78
2023/12/09 02:39:45;;;;;;;3.22;2.30;;;9.70;99.90;;;;;;4959895;28;20169;-77
2023/12/09 02:42:12;;;;;;;5.10;1.42;;;9.70;99.90;;;;;;4987108;28;20219;-77
2023/12/09 02:44:41;;;;;;;5.28;1.92;;;9.60;99.90;;;;;;5023678;28;20212;-77
2023/12/09 02:47:11;;;;;;;3.72;1.40;;;9.50;99.90;;;;;;5084399;28;20172;-77
2023/12/09 02:49:37;;;;;;;6.43;1.63;;;9.50;99.90;;;;;;5052823;28;20176;-77
2023/12/09 02:52:03;;;;;;;3.87;1.60;;;9.40;99.90;;;;;;5029370;28;20179;-77
2023/12/09 02:54:28;;;;;;;4.53;1.43;;;9.40;99.90;;;;;;5070898;28;20214;-77
2023/12/09 02:56:54;;;;;;;3.40;1.47;;;9.40;99.90;;;;;;4986127;28;20582;-76
2023/12/09 02:59:20;;;;;;;5.40;1.43;;;9.30;99.90;;;;;;4987788;28;20177;-77
2023/12/09 03:01:45;;;;;;;5.70;2.50;;;9.30;99.90;;;;;;5001695;28;20168;-77
2023/12/09 03:04:11;;;;;;;3.87;1.67;;;9.20;99.90;;;;;;5029159;28;20197;-77
2023/12/09 03:06:37;;;;;;;3.80;1.13;;;9.20;99.90;;;;;;5074277;28;20172;-77
2023/12/09 03:09:03;;;;;;;5.20;1.70;;;9.20;99.90;;;;;;5073645;28;20203;-77
2023/12/09 03:11:28;;;;;;;8.38;1.95;;;9.10;99.90;;;;;;4987854;28;20183;-77
2023/12/09 03:13:54;;;;;;;4.70;1.80;;;9.10;99.90;;;;;;4987812;28;20531;-77
2023/12/09 03:16:20;;;;;;;5.13;1.77;;;9.00;99.90;;;;;;4988028;28;20180;-77
2023/12/09 03:18:45;;;;;;;6.07;2.27;;;8.90;99.90;;;;;;5073413;28;20200;-76
2023/12/09 03:21:15;;;;;;;5.30;1.80;;;8.90;99.90;;;;;;4988070;28;20176;-76
2023/12/09 03:23:44;;;;;;;4.85;1.45;;;8.90;99.90;;;;;;4987533;28;20210;-76
2023/12/09 03:26:14;;;;;;;4.20;1.50;;;8.80;99.90;;;;;;5074214;28;20177;-76
2023/12/09 03:28:41;;;;;;;6.22;1.73;;;8.80;99.90;;;;;;4987760;28;20211;-76
2023/12/09 03:31:18;;;;;;;3.45;2.05;;;8.80;99.90;;;;;;5073862;28;20535;-77
2023/12/09 03:33:44;;;;;;;6.60;2.17;;;8.80;99.90;;;;;;4987318;28;20203;-77
2023/12/09 03:36:14;;;;;;;4.53;1.90;;;8.70;99.90;;;;;;4987377;28;20184;-78
2023/12/09 03:38:40;;;;;;;3.80;1.80;;;8.70;99.90;;;;;;5012849;28;20291;-77
2023/12/09 03:41:07;;;;;;;4.30;1.52;;;8.70;99.90;;;;;;4989546;28;20180;-77
2023/12/09 03:43:33;;;;;;;3.53;2.00;;;8.70;99.90;;;;;;4987987;28;20196;-77
2023/12/09 03:45:59;;;;;;;4.22;1.45;;;8.60;99.90;;;;;;4988394;28;20165;-77
2023/12/09 03:48:25;;;;;;;8.87;2.03;;;8.60;99.90;;;;;;5073558;28;20181;-77
2023/12/09 03:50:51;;;;;;;4.65;1.50;;;8.60;99.90;;;;;;5056540;28;20674;-77
2023/12/09 03:53:17;;;;;;;4.67;1.70;;;8.60;99.90;;;;;;5063570;28;20220;-77
2023/12/09 03:55:43;;;;;;;6.55;1.80;;;8.60;99.90;;;;;;5004485;28;20180;-77
2023/12/09 03:58:09;;;;;;;4.27;1.43;;;8.50;99.90;;;;;;5001951;28;20251;-77
2023/12/09 04:00:36;;;;;;;4.47;2.20;;;8.50;99.90;;;;;;4994705;28;20173;-77
2023/12/09 04:03:03;;;;;;;6.45;1.92;;;8.50;99.90;;;;;;4971995;28;20196;-77
2023/12/09 04:05:29;;;;;;;4.07;1.20;;;8.50;99.90;;;;;;5017401;28;20183;-78
2023/12/09 04:07:54;;;;;;;4.18;1.48;;;8.50;99.90;;;;;;4990974;28;20181;-77
2023/12/09 04:10:20;;;;;;;5.50;1.73;;;8.50;99.90;;;;;;5001356;28;20184;-77
2023/12/09 04:12:46;;;;;;;3.80;1.80;;;8.50;99.90;;;;;;5052020;28;20196;-77
2023/12/09 04:15:11;;;;;;;5.50;1.80;;;8.40;99.90;;;;;;5055377;28;20696;-76
2023/12/09 04:17:37;;;;;;;3.73;2.00;;;8.40;99.90;;;;;;4994457;28;20210;-76
2023/12/09 04:20:08;;;;;;;7.37;1.90;;;8.40;99.90;;;;;;4973457;28;20221;-76
2023/12/09 04:22:37;;;;;;;5.28;1.50;;;8.40;99.90;;;;;;5009916;28;20622;-76
2023/12/09 04:25:04;;;;;;;5.10;1.90;;;8.40;99.90;;;;;;4979715;28;20171;-77
2023/12/09 04:27:33;;;;;;;4.63;1.58;;;8.40;99.90;;;;;;4973993;28;20179;-77
2023/12/09 04:30:05;;;;;;;6.68;1.70;;;8.30;99.90;;;;;;4974609;28;20217;-77
2023/12/09 04:32:31;;;;;;;5.57;2.55;;;8.30;99.90;;;;;;4986999;28;20558;-77
2023/12/09 04:34:58;;;;;;;3.83;1.98;;;8.30;99.90;;;;;;5061007;28;20181;-76
2023/12/09 04:37:24;;;;;;;4.05;1.92;;;8.30;99.90;;;;;;5000082;28;20198;-77
2023/12/09 04:39:51;;;;;;;5.53;2.10;;;8.30;99.90;;;;;;5038066;28;20211;-76
2023/12/09 04:42:18;;;;;;;6.03;2.50;;;8.30;99.90;;;;;;5037748;28;20222;-76
2023/12/09 04:44:43;;;;;;;5.28;2.20;;;8.30;99.90;;;;;;5038094;28;20187;-76
2023/12/09 04:47:09;;;;;;;4.43;2.00;;;8.30;99.90;;;;;;5037817;28;20180;-76
2023/12/09 04:49:35;;;;;;;8.93;2.23;;;8.30;99.90;;;;;;4998555;28;20180;-76
2023/12/09 04:52:01;;;;;;;5.40;2.40;;;8.30;99.90;;;;;;5044530;28;20572;-77
2023/12/09 04:54:26;;;;;;;9.13;2.73;;;8.30;99.90;;;;;;5037911;28;20176;-77
2023/12/09 04:56:52;;;;;;;8.97;3.10;;;8.30;99.90;;;;;;5006696;28;20177;-76
2023/12/09 04:59:18;;;;;;;8.00;2.67;;;8.30;99.90;;;;;;5031531;28;20229;-77
2023/12/09 05:01:45;;;;;;;5.53;2.70;;;8.30;99.90;;;;;;5007053;28;20286;-77
2023/12/09 05:04:11;;;;;;;9.05;3.67;;;8.30;99.90;;;;;;5037606;28;20225;-77
2023/12/09 05:06:36;;;;;;;6.60;3.05;;;8.30;99.90;;;;;;4999815;28;20204;-77
2023/12/09 05:09:02;;;;;;;6.10;2.93;;;8.30;99.90;;;;;;5043842;28;20201;-76
2023/12/09 05:11:28;;;;;;;6.60;3.00;;;8.30;99.90;;;;;;5037790;28;20188;-76
2023/12/09 05:13:54;;;;;;;5.67;2.90;;;8.30;99.90;;;;;;5006559;28;20221;-76
2023/12/09 05:16:20;;;;;;;4.83;2.90;;;8.30;99.90;;;;;;4970657;28;20660;-76
2023/12/09 05:18:45;;;;;;;3.50;2.93;;;8.30;99.90;;;;;;5037089;28;20614;-76
2023/12/09 05:21:14;;;;;;;5.10;2.53;;;8.30;99.90;;;;;;5036238;28;20685;-76
2023/12/09 05:23:40;;;;;;;6.22;2.90;;;8.30;99.90;;;;;;4970284;28;20211;-75
2023/12/09 05:26:06;;;;;;;8.47;3.43;;;8.30;99.90;;;;;;5037496;28;20183;-76
2023/12/09 05:28:32;;;;;;;7.00;2.33;;;8.30;99.90;;;;;;5033759;28;20180;-76
2023/12/09 05:30:57;;;;;;;4.40;2.90;;;8.20;99.90;;;;;;4981619;28;20184;-76
2023/12/09 05:33:23;;;;;;;4.80;2.60;;;8.20;99.90;;;;;;5036450;28;20290;-76
2023/12/09 05:35:49;;;;;;;6.63;2.63;;;8.20;99.90;;;;;;5037143;28;20593;-76
2023/12/09 05:38:14;;;;;;;4.20;2.40;;;8.20;99.90;;;;;;5020182;28;20214;-76
2023/12/09 05:40:40;;;;;;;10.60;3.43;;;8.10;99.90;;;;;;4970523;28;20176;-76
2023/12/09 05:43:06;;;;;;;5.00;1.80;;;8.10;99.90;;;;;;5036829;28;20227;-76
2023/12/09 05:45:32;;;;;;;4.87;2.80;;;8.10;99.90;;;;;;4970200;28;20640;-76
2023/12/09 05:47:57;;;;;;;7.00;2.70;;;8.00;99.90;;;;;;5036792;28;20186;-76
2023/12/09 05:50:23;;;;;;;5.93;2.43;;;8.00;99.90;;;;;;5036745;28;20634;-76
2023/12/09 05:52:49;;;;;;;4.97;2.40;;;7.90;99.90;;;;;;5036380;28;20668;-76
2023/12/09 05:55:16;;;;;;;6.47;2.63;;;7.90;99.90;;;;;;4970375;28;20770;-77
2023/12/09 05:57:42;;;;;;;4.68;3.00;;;7.90;99.90;;;;;;4970173;28;20200;-77
2023/12/09 06:00:10;;;;;;;4.70;2.25;;;7.90;99.90;;;;;;5036689;28;20176;-76
2023/12/09 06:02:35;;;;;;;11.40;3.20;;;7.80;99.90;;;;;;5036597;28;20204;-76
2023/12/09 06:05:02;;;;;;;4.80;2.40;;;7.80;99.90;;;;;;5053949;28;20188;-76
2023/12/09 06:07:28;;;;;;;5.72;2.72;;;7.80;99.90;;;;;;5040449;28;20831;-76
2023/12/09 06:09:54;;;;;;;4.30;2.53;;;7.80;99.90;;;;;;4969825;28;20202;-76
2023/12/09 06:12:20;;;;;;;4.90;2.90;;;7.80;99.90;;;;;;5043180;28;21038;-77
2023/12/09 06:14:46;;;;;;;4.83;2.87;;;7.80;99.90;;;;;;5053521;28;20582;-76
2023/12/09 06:17:11;;;;;;;3.47;1.90;;;7.80;99.90;;;;;;5051598;28;20568;-77
2023/12/09 06:19:37;;;;;;;8.70;2.70;;;7.80;99.90;;;;;;5036246;28;20659;-76
2023/12/09 06:22:03;;;;;;;3.45;2.20;;;7.80;99.90;;;;;;5036251;28;20167;-76
2023/12/09 06:24:29;;;;;;;3.47;2.30;;;7.80;99.90;;;;;;5012808;28;20170;-76
2023/12/09 06:26:55;;;;;;;5.40;3.00;;;7.80;99.90;;;;;;5036395;28;20644;-77
2023/12/09 06:29:20;;;;;;;4.63;2.03;;;7.80;99.90;;;;;;5036348;28;20214;-75
2023/12/09 06:31:46;;;;;;;7.27;2.70;;;7.80;99.90;;;;;;4970203;28;20175;-76
2023/12/09 06:34:12;;;;;;;3.90;1.63;;;7.80;99.90;;;;;;4969296;28;20208;-76
2023/12/09 06:36:37;;;;;;;3.67;2.10;;;7.70;99.90;;;;;;5036215;28;20172;-77
2023/12/09 06:39:03;;;;;;;3.53;1.90;;;7.70;99.90;;;;;;5052578;28;20561;-76
2023/12/09 06:41:29;;;;;;;3.47;2.03;;;7.70;99.90;;;;;;5040294;28;20560;-77
2023/12/09 06:43:54;;;;;;;5.07;2.50;;;7.70;99.90;;;;;;5035583;28;20207;-76
2023/12/09 06:46:20;;;;;;;3.50;2.20;;;7.70;99.90;;;;;;5035755;28;20191;-77
2023/12/09 06:48:46;;;;;;;3.90;1.83;;;7.70;99.90;;;;;;5032653;28;20646;-77
2023/12/09 06:51:16;;;;;;;4.17;1.90;;;7.70;99.90;;;;;;5049116;28;20188;-77
2023/12/09 06:53:42;;;;;;;5.53;2.30;;;7.70;99.90;;;;;;5052338;28;20196;-77
2023/12/09 06:56:17;;;;;;;7.25;2.50;;;7.70;99.90;;;;;;4982031;28;20183;-76
2023/12/09 06:58:42;;;;;;;3.97;2.05;;;7.70;99.90;;;;;;5028102;28;20557;-76
2023/12/09 07:01:08;;;;;;;11.70;2.90;;;7.70;99.90;;;;;;5036170;28;20171;-77
2023/12/09 07:03:34;;;;;;;3.67;2.20;;;7.70;99.90;;;;;;5035457;28;20282;-77
2023/12/09 07:05:59;;;;;;;5.17;2.73;;;7.70;99.90;;;;;;5035522;28;20172;-77
2023/12/09 07:08:25;;;;;;;5.13;2.07;;;7.70;99.90;;;;;;4969269;28;20233;-76
2023/12/09 07:10:51;;;;;;;4.10;2.23;;;7.70;99.90;;;;;;5036040;28;20184;-77
2023/12/09 07:13:16;;;;;;;5.80;2.50;;;7.70;99.90;;;;;;4968841;28;20204;-76
2023/12/09 07:15:42;;;;;;;5.17;2.80;;;7.80;99.90;;;;;;4969093;28;20586;-76
2023/12/09 07:18:08;;;;;;;4.67;2.30;;;7.70;99.90;;;;;;4968882;28;20262;-76
2023/12/09 07:20:34;;;;;;;5.30;2.47;;;7.80;99.90;;;;;;5002234;28;20641;-76
2023/12/09 07:23:00;;;;;;;4.47;1.93;;;7.80;99.90;;;;;;5052271;28;20204;-75
2023/12/09 07:25:27;;;;;;;4.43;2.45;;;7.80;99.90;;;;;;5050592;28;20679;-75
2023/12/09 07:27:52;;;;;;;5.68;2.90;;;7.70;99.90;;;;;;5052422;28;20180;-75
2023/12/09 07:30:18;;;;;;;3.70;1.97;;;7.70;99.90;;;;;;5064053;28;20211;-76
2023/12/09 07:32:44;;;;;;;3.33;2.30;;;7.70;99.90;;;;;;5071038;23;20223;-76
2023/12/09 07:35:09;;;;;;;6.93;3.30;;;7.80;99.90;;;;;;4972932;28;20207;-76
2023/12/09 07:37:35;;;;;;;3.13;1.67;;;7.70;99.90;;;;;;4994666;28;20704;-76
2023/12/09 07:40:01;;;;;;;9.80;3.17;;;7.70;99.90;;;;;;4987657;28;20171;-75
2023/12/09 07:42:26;;;;;;;3.97;2.13;;;7.80;99.90;;;;;;4986490;28;20190;-76
2023/12/09 07:44:52;;;;;;;7.13;3.27;;;7.80;99.90;;;;;;4962137;28;20262;-75
2023/12/09 07:47:18;;;;;;;5.73;2.60;;;7.80;99.90;;;;;;4971384;28;20594;-75
2023/12/09 07:49:43;;;;;;;6.07;2.37;;;7.80;99.90;;;;;;4977918;28;20180;-75
2023/12/09 07:52:09;;;;;;;8.63;2.70;;;7.80;99.90;;;;;;4987036;28;20297;-75
2023/12/09 07:54:35;;;;;;;6.83;2.13;;;7.90;99.90;;;;;;4973122;28;20258;-75
2023/12/09 07:57:00;;;;;;;7.57;2.40;;;7.90;99.90;;;;;;4956562;28;20176;-75
2023/12/09 07:59:26;;;;;;;4.70;2.80;;;7.90;99.90;;;;;;4980518;28;20593;-75
2023/12/09 08:01:52;;;;;;;3.90;2.10;;;7.90;99.90;;;;;;4957667;28;21455;-74
2023/12/09 08:04:17;;;;;;;9.07;2.50;;;7.90;99.90;;;;;;4984253;28;20691;-75
2023/12/09 08:06:43;;;;;;;6.27;2.10;;;7.90;99.90;;;;;;4984142;28;20608;-75
2023/12/09 08:09:09;;;;;;;5.90;2.63;;;8.00;99.90;;;;;;4976730;28;20198;-75
2023/12/09 08:11:35;;;;;;;5.97;1.70;;;8.00;99.90;;;;;;5040768;28;20190;-75
2023/12/09 08:14:01;;;;;;;5.00;1.70;;;8.00;99.90;;;;;;4976652;28;20262;-75
2023/12/09 08:16:27;;;;;;;9.17;2.90;;;8.10;99.90;;;;;;4953675;28;20187;-75
2023/12/09 08:18:53;;;;;;;7.03;2.87;;;8.10;99.90;;;;;;4980043;28;21227;-75
2023/12/09 08:21:19;;;;;;;7.03;2.42;;;8.20;99.90;;;;;;4958704;28;20184;-74
2023/12/09 08:23:44;;;;;;;2.17;1.33;;;8.20;99.90;;;;;;4981468;28;20186;-74
2023/12/09 08:26:16;;;;;;;4.47;1.70;;;8.30;99.90;;;;;;4966376;28;20641;-74
2023/12/09 08:28:42;;;;;;;6.60;1.80;;;8.40;99.90;;;;;;4970885;28;20187;-74
2023/12/09 08:31:08;;;;;;;4.90;1.87;;;8.50;99.90;;;;;;4968440;28;20636;-74
2023/12/09 08:33:33;;;;;;;3.33;2.00;;;8.60;99.90;;;;;;4970283;28;20250;-74
2023/12/09 08:35:59;;;;;;;8.87;3.13;;;8.60;99.90;;;;;;4975804;28;20591;-74
2023/12/09 08:38:25;;;;;;;3.40;1.67;;;8.60;99.90;;;;;;4987130;28;20210;-74
2023/12/09 08:40:51;;;;;;;5.50;2.03;;;8.70;99.90;;;;;;4988013;28;20174;-74
2023/12/09 08:43:17;;;;;;;5.97;2.70;;;8.80;99.90;;;;;;4977598;28;20213;-74
2023/12/09 08:45:42;;;;;;;4.17;2.63;;;8.80;99.90;;;;;;4982553;28;20179;-74
2023/12/09 08:48:08;;;;;;;3.43;1.67;;;8.90;99.90;;;;;;4969955;28;20210;-74
2023/12/09 08:50:34;;;;;;;5.17;1.87;;;8.90;99.90;;;;;;4988784;28;20187;-74
2023/12/09 08:53:02;;;;;;;7.18;2.38;;;9.00;99.90;;;;;;4945804;28;20654;-74
2023/12/09 08:55:28;;;;;;;6.57;2.40;;;9.00;99.90;;;;;;5000973;28;20173;-74
2023/12/09 08:57:53;;;;;;;8.17;2.73;;;9.00;99.90;;;;;;4978911;28;20202;-74
2023/12/09 09:00:20;;;;;;;5.30;1.60;;;9.00;99.90;;;;;;4989521;28;20616;-73
2023/12/09 09:02:47;;;;;;;3.83;1.90;;;9.10;99.90;;;;;;5001526;28;20567;-74
2023/12/09 09:05:13;;;;;;;8.23;2.13;;;9.10;99.90;;;;;;4983891;28;20175;-74
2023/12/09 09:07:40;;;;;;;10.13;2.23;;;9.20;99.90;;;;;;4984939;28;20233;-74
2023/12/09 09:10:07;;;;;;;9.90;1.70;;;9.30;99.90;;;;;;5016424;28;20186;-73
2023/12/09 09:12:33;;;;;;;5.30;1.95;;;9.30;99.90;;;;;;5006367;28;20202;-73
2023/12/09 09:14:59;;;;;;;5.50;2.93;;;9.30;99.90;;;;;;4990831;28;20266;-74
2023/12/09 09:17:24;;;;;;;5.07;1.87;;;9.40;99.90;;;;;;4990013;28;20540;-74
2023/12/09 09:19:51;;;;;;;8.33;2.20;;;9.40;99.90;;;;;;5040594;28;20178;-73
2023/12/09 09:22:17;;;;;;;10.38;2.90;;;9.40;99.90;;;;;;4960380;28;20230;-74
2023/12/09 09:24:42;;;;;;;6.57;1.83;;;9.50;99.90;;;;;;4994390;28;20206;-74
2023/12/09 09:27:08;;;;;;;6.27;1.97;;;9.50;99.90;;;;;;4987416;28;20170;-74
2023/12/09 09:29:34;;;;;;;5.00;1.80;;;9.60;99.90;;;;;;5041016;28;20198;-74
2023/12/09 09:31:59;;;;;;;7.47;2.50;;;9.70;99.90;;;;;;4985429;28;20274;-74
2023/12/09 09:34:25;;;;;;;6.17;2.13;;;9.70;99.90;;;;;;5000405;28;20184;-74
2023/12/09 09:36:51;;;;;;;6.33;2.03;;;9.80;99.90;;;;;;5029220;28;20171;-74
2023/12/09 09:39:17;;;;;;;8.87;3.00;;;9.80;99.90;;;;;;4948085;28;21175;-74
2023/12/09 09:42:13;;;;;;;14.68;2.67;;;9.90;99.90;;;;;;4987304;28;20198;-74
2023/12/09 09:45:00;;;;;;;8.73;2.83;;;9.90;99.90;;;;;;4960231;28;20180;-74
2023/12/09 09:47:28;;;;;;;12.25;2.55;;;9.90;99.90;;;;;;4984189;28;20178;-74
2023/12/09 09:49:56;;;;;;;13.35;2.30;;;10.00;99.90;;;;;;4975643;28;20183;-74
2023/12/09 09:52:23;;;;;;;8.10;2.00;;;10.00;99.90;;;;;;4968934;28;20222;-73
2023/12/09 09:54:49;;;;;;;5.45;1.92;;;10.10;99.90;;;;;;4964736;28;20172;-73
2023/12/09 09:57:16;;;;;;;4.32;2.20;;;10.20;99.90;;;;;;4957322;28;20260;-73
2023/12/09 09:59:41;;;;;;;9.65;2.80;;;10.20;99.90;;;;;;5086090;28;20179;-73
2023/12/09 10:02:09;;;;;;;3.27;2.10;;;10.30;99.90;;;;;;5073610;28;20192;-73
2023/12/09 10:04:36;;;;;;;6.20;1.85;;;10.30;99.90;;;;;;5073659;28;20782;-73
2023/12/09 10:07:04;;;;;;;7.93;3.00;;;10.40;99.90;;;;;;5043290;28;20183;-73
2023/12/09 10:09:29;;;;;;;13.00;3.22;;;10.40;99.90;;;;;;4969629;28;20191;-73
2023/12/09 10:11:55;;;;;;;7.80;2.30;;;10.40;99.90;;;;;;4997275;28;20275;-73
2023/12/09 10:14:23;;;;;;;5.77;2.10;;;10.50;99.90;;;;;;4971855;28;20187;-73
2023/12/09 10:16:49;;;;;;;11.13;3.85;;;10.50;99.90;;;;;;4986081;28;20229;-73
2023/12/09 10:19:16;;;;;;;9.68;3.25;;;10.50;99.90;;;;;;4981890;28;20205;-73
2023/12/09 10:21:42;;;;;;;8.38;2.35;;;10.50;99.90;;;;;;5008856;28;20572;-73
2023/12/09 10:24:08;;;;;;;6.93;2.33;;;10.50;99.90;;;;;;4985344;28;20175;-73
2023/12/09 10:26:33;;;;;;;9.60;2.47;;;10.60;99.90;;;;;;4971659;28;20610;-73
2023/12/09 10:29:00;;;;;;;9.30;2.30;;;10.60;99.90;;;;;;5051564;28;20194;-73
2023/12/09 10:31:27;;;;;;;9.40;1.92;;;10.60;99.90;;;;;;5036101;28;20179;-73
2023/12/09 10:33:53;;;;;;;7.65;2.17;;;10.70;99.90;;;;;;4967829;28;20183;-73
2023/12/09 10:36:19;;;;;;;7.07;1.60;;;10.80;99.90;;;;;;4959709;28;20190;-73
2023/12/09 10:38:44;;;;;;;8.40;2.50;;;11.00;99.90;;;;;;4970707;28;20261;-73
2023/12/09 10:41:13;;;;;;;7.17;1.97;;;11.10;99.90;;;;;;4977441;28;20185;-73
2023/12/09 10:43:40;;;;;;;7.80;1.70;;;11.20;99.90;;;;;;5011673;28;20208;-73
2023/12/09 10:46:07;;;;;;;6.03;1.90;;;11.40;99.90;;;;;;4952114;28;20168;-73
2023/12/09 10:48:33;;;;;;;7.70;2.13;;;11.50;99.90;;;;;;4987488;28;20190;-73
2023/12/09 10:50:59;;;;;;;13.20;2.30;;;11.60;99.90;;;;;;4973943;28;20183;-74
2023/12/09 10:53:24;;;;;;;5.33;2.40;;;11.60;99.90;;;;;;4944303;28;20199;-73
2023/12/09 10:55:51;;;;;;;7.47;1.97;;;11.60;99.90;;;;;;4966456;28;20202;-74
2023/12/09 10:58:17;;;;;;;6.60;2.13;;;11.70;99.90;;;;;;4981832;28;20600;-73
2023/12/09 11:00:45;;;;;;;5.80;1.55;;;11.70;99.90;;;;;;4976156;28;20249;-74
2023/12/09 11:03:11;;;;;;;9.45;1.90;;;11.70;99.90;;;;;;4999403;28;20210;-73
2023/12/09 11:05:51;;;;;;;6.82;2.05;;;11.70;99.90;;;;;;5023104;28;20228;-73
2023/12/09 11:08:17;;;;;;;12.13;4.68;;;11.70;99.90;;;;;;4988319;28;20179;-74
2023/12/09 11:10:44;;;;;;;13.85;4.53;;;11.70;99.90;;;;;;4969933;28;20180;-74
2023/12/09 11:13:11;;;;;;;12.15;5.63;;;11.80;99.90;;;;;;4965029;28;20207;-74
2023/12/09 11:15:36;;;;;;;12.63;4.40;;;11.80;99.90;;;;;;4974554;28;20214;-74
2023/12/09 11:18:10;;;;;;;7.97;3.00;;;11.80;99.90;;;;;;4962300;28;20227;-74
2023/12/09 11:20:40;;;;;;;8.57;3.33;;;11.70;99.90;;;;;;4971930;28;20180;-75
2023/12/09 11:23:11;;;;;;;10.23;2.10;;;11.70;99.90;;;;;;5002029;28;20546;-74
2023/12/09 11:25:42;;;;;;;6.53;1.65;;;11.70;99.90;;;;;;4974082;28;20594;-74
2023/12/09 11:28:11;;;;;;;8.85;2.65;;;11.70;99.90;;;;;;4989413;28;20190;-75
2023/12/09 11:30:41;;;;;;;9.40;2.17;;;11.70;99.90;;;;;;4991023;28;20175;-74
2023/12/09 11:33:07;;;;;;;5.90;2.42;;;11.70;99.90;;;;;;4973039;28;20203;-75
2023/12/09 11:35:34;;;;;;;6.63;2.35;;;11.80;99.90;;;;;;4988777;28;20203;-75
2023/12/09 11:38:04;;;;;;;7.25;1.67;;;11.80;99.90;;;;;;4977534;28;20298;-74
2023/12/09 11:40:30;;;;;;;4.53;1.38;;;11.70;99.90;;;;;;4995487;28;20258;-75
2023/12/09 11:42:57;;;;;;;3.53;1.23;;;11.80;99.90;;;;;;4971847;28;20205;-74
2023/12/09 11:45:24;;;;;;;7.22;1.30;;;11.80;99.90;;;;;;4972841;28;20210;-74
2023/12/09 11:47:50;;;;;;;7.07;1.80;;;11.80;99.90;;;;;;5016048;28;20179;-75
2023/12/09 11:50:16;;;;;;;8.98;2.03;;;11.80;99.90;;;;;;4978457;28;20210;-75
2023/12/09 11:52:48;;;;;;;8.02;2.42;;;11.80;99.90;;;;;;4972521;28;20239;-75
2023/12/09 11:55:17;;;;;;;15.43;4.38;;;11.80;99.90;;;;;;4968103;28;20202;-75
2023/12/09 11:57:43;;;;;;;6.15;2.38;;;11.70;99.90;;;;;;4972902;28;20209;-75
2023/12/09 12:00:13;;;;;;;8.27;2.40;;;11.70;99.90;;;;;;4948699;28;20176;-76
2023/12/09 12:02:42;;;;;;;6.00;1.25;;;11.60;99.90;;;;;;4999235;28;20202;-76
2023/12/09 12:05:09;;;;;;;6.88;1.77;;;11.50;99.90;;;;;;4973789;28;20269;-76
2023/12/09 12:07:39;;;;;;;4.10;1.60;;;11.50;99.90;;;;;;4973592;28;20175;-76
2023/12/09 12:10:09;;;;;;;5.75;1.20;;;11.40;99.90;;;;;;5038153;28;20175;-76
2023/12/09 12:12:35;;;;;;;4.15;1.00;;;11.40;99.90;;;;;;4983753;28;20203;-76
2023/12/09 12:15:02;;;;;;;6.45;1.20;;;11.30;99.90;;;;;;4988394;28;20180;-75
2023/12/09 12:17:35;;;;;;;4.25;1.20;;;11.30;99.90;;;;;;4967796;28;20194;-74
2023/12/09 12:20:01;;;;;;;6.85;1.45;;;11.20;99.90;;;;;;5015507;28;20174;-74
2023/12/09 12:22:27;;;;;;;6.17;1.60;;;11.20;99.90;;;;;;4966100;28;20188;-74
2023/12/09 12:24:53;;;;;;;7.00;1.20;;;11.20;99.90;;;;;;5007979;28;20577;-75
2023/12/09 12:27:19;;;;;;;4.60;0.90;;;11.10;99.90;;;;;;5012289;28;20180;-75
2023/12/09 12:29:45;;;;;;;5.23;1.03;;;11.10;99.90;;;;;;4972579;28;20689;-75
2023/12/09 12:32:15;;;;;;;3.05;0.70;;;11.10;99.90;;;;;;4969544;28;20216;-74
2023/12/09 12:34:47;;;;;;;5.18;1.20;;;11.00;99.90;;;;;;4967041;28;20188;-74
2023/12/09 12:37:13;;;;;;;4.78;0.93;;;10.90;99.90;;;;;;4964835;28;20660;-74
2023/12/09 12:39:39;;;;;;;4.60;1.20;;;10.80;99.90;;;;;;4985375;28;20175;-74
2023/12/09 12:42:05;;;;;;;4.03;1.17;;;10.80;99.90;;;;;;4989920;28;20603;-74
2023/12/09 12:44:32;;;;;;;3.72;1.30;;;10.70;99.90;;;;;;4972672;28;20578;-75
2023/12/09 12:46:58;;;;;;;7.22;1.77;;;10.70;99.90;;;;;;4956755;28;20225;-76
2023/12/09 12:49:25;;;;;;;4.27;1.00;;;10.60;99.90;;;;;;4973090;28;20622;-76
2023/12/09 12:51:51;;;;;;;5.93;0.85;;;10.60;99.90;;;;;;4987549;28;20672;-76